Bucareste, Roménia

09:58 PM EET em 20 de Janeiro de 2017 (GMT +0200)
Aleea Ilia | | Change Station

Elev 278 ft 44.44 °N, 26.15 °E | Updated 1 minute ago

Light Freezing Fog
Sincelo Fraco
19.9 °F
Aparente 20 °F
N
1.9
Vento Variável Vento de Sul
Gusts 7.5 mph

Hoje
Máxima -- | Mínima -- °F
--% Possibilidade de Precip.
Ontem
Máxima -- | Mínima -- °F
Precip. -- pol
Pressão 30.54 pol
Visibilidade 0.3 milhas
Nuvens Céu Encoberto 100 ft
Sensação Térmica 20 °F
Ponto de Orvalho 16 °F
Humidade 83%
Chuva 0.00 pol
Altura de Neve Não disponível
7:45 AM 5:08 PM
Quarto minguante, 42% visible
METAR LRBS 201930Z 26010KT 240V300 0450 R07/1000D R25/1000N FZFG BKN000 OVC001 M09/M09 Q1034 R07/910295 NOSIG
Pressão 30.54 pol
Visibilidade 0.3 milhas
Nuvens Céu Encoberto 100 ft
Sensação Térmica 20 °F
Ponto de Orvalho 16 °F
Humidade 83%
Chuva 0.00 pol
Altura de Neve Não disponível
7:45 AM 5:08 PM
Quarto minguante, 42% visible
METAR LRBS 201930Z 26010KT 240V300 0450 R07/1000D R25/1000N FZFG BKN000 OVC001 M09/M09 Q1034 R07/910295 NOSIG

Get Your Daily Forecast Email!

Thanks for signing up!

Be on the lookout for a verification email in your inbox.

You'll start receiving the daily forecast at 8 AM.

×

10-Day Weather Forecast

×

Almanac

Astronomia

Jan. 20, 2017 Nascer Pôr
Hora atual
Crepúsculo civil
Crepúsculo náutico
Crepúsculo astronómico
Lua
Comprimento da luz visível
Duração do Dia
Tomorrow will be .
, % of the Moon is Illuminated

Extremos de Hoje

Altitude na localidade Altura mais baixa na localidade

Community

WunderPhotos

Upload Photos

1,962,540 fotografias inseridas!

WunderBlog® & News

Nearby

Qualidade do Ar

  Qualidade do Ar Índice da Q.A. Poluente
Not available.

Altura da Neve

Estação altura Altitude

Actividade Sísmisca

Cidade Distância Mag. Hora & Data
Mínima magnitude apresentada é 2.5.

Temperaturas das Águas Costeiras

Local Temperatura

Stations

Estações Meteorológicas Próximas

Localização da Estação Temp. Sensação Térmica Ponto de Orvalho Humidade Vento Precip. Elev Actualizado Tipo